sensor_id;sensor_type;location;lat;lon;timestamp;temperature;humidity
48998;DHT22;34807;51.456;7.244;2023-07-28T00:03:20;18.30;96.90
48998;DHT22;34807;51.456;7.244;2023-07-28T00:05:45;18.40;96.70
48998;DHT22;34807;51.456;7.244;2023-07-28T00:08:11;18.40;96.70
48998;DHT22;34807;51.456;7.244;2023-07-28T00:10:40;18.30;96.80
48998;DHT22;34807;51.456;7.244;2023-07-28T00:13:06;18.30;97.00
48998;DHT22;34807;51.456;7.244;2023-07-28T00:15:31;18.30;97.60
48998;DHT22;34807;51.456;7.244;2023-07-28T00:17:57;18.30;97.10
48998;DHT22;34807;51.456;7.244;2023-07-28T00:20:25;18.30;97.10
48998;DHT22;34807;51.456;7.244;2023-07-28T00:22:50;18.30;97.00
48998;DHT22;34807;51.456;7.244;2023-07-28T00:25:16;18.30;96.90
48998;DHT22;34807;51.456;7.244;2023-07-28T00:27:41;18.30;97.10
48998;DHT22;34807;51.456;7.244;2023-07-28T00:30:07;18.30;96.80
48998;DHT22;34807;51.456;7.244;2023-07-28T00:32:32;18.30;97.20
48998;DHT22;34807;51.456;7.244;2023-07-28T00:34:58;18.30;97.10
48998;DHT22;34807;51.456;7.244;2023-07-28T00:37:23;18.30;97.20
48998;DHT22;34807;51.456;7.244;2023-07-28T00:39:49;18.30;97.20
48998;DHT22;34807;51.456;7.244;2023-07-28T00:42:14;18.30;97.20
48998;DHT22;34807;51.456;7.244;2023-07-28T00:44:40;18.30;97.30
48998;DHT22;34807;51.456;7.244;2023-07-28T00:47:05;18.30;97.10
48998;DHT22;34807;51.456;7.244;2023-07-28T00:49:31;18.30;97.00
48998;DHT22;34807;51.456;7.244;2023-07-28T00:51:57;18.30;97.10
48998;DHT22;34807;51.456;7.244;2023-07-28T00:54:23;18.30;97.40
48998;DHT22;34807;51.456;7.244;2023-07-28T00:56:48;18.30;97.10
48998;DHT22;34807;51.456;7.244;2023-07-28T00:59:14;18.30;96.90
48998;DHT22;34807;51.456;7.244;2023-07-28T01:01:40;18.30;97.00
48998;DHT22;34807;51.456;7.244;2023-07-28T01:04:05;18.30;97.10
48998;DHT22;34807;51.456;7.244;2023-07-28T01:09:03;18.30;97.10
48998;DHT22;34807;51.456;7.244;2023-07-28T01:11:29;18.20;97.40
48998;DHT22;34807;51.456;7.244;2023-07-28T01:13:55;18.20;97.00
48998;DHT22;34807;51.456;7.244;2023-07-28T01:16:21;18.20;96.80
48998;DHT22;34807;51.456;7.244;2023-07-28T01:18:46;18.20;96.60
48998;DHT22;34807;51.456;7.244;2023-07-28T01:21:14;18.20;97.10
48998;DHT22;34807;51.456;7.244;2023-07-28T01:26:45;18.20;97.30
48998;DHT22;34807;51.456;7.244;2023-07-28T01:29:11;18.20;96.90
48998;DHT22;34807;51.456;7.244;2023-07-28T01:31:39;18.20;96.80
48998;DHT22;34807;51.456;7.244;2023-07-28T01:34:04;18.20;96.80
48998;DHT22;34807;51.456;7.244;2023-07-28T01:36:30;18.20;96.90
48998;DHT22;34807;51.456;7.244;2023-07-28T01:38:55;18.20;97.00
48998;DHT22;34807;51.456;7.244;2023-07-28T01:41:21;18.20;96.90
48998;DHT22;34807;51.456;7.244;2023-07-28T01:43:46;18.20;97.00
48998;DHT22;34807;51.456;7.244;2023-07-28T01:46:12;18.20;97.00
48998;DHT22;34807;51.456;7.244;2023-07-28T01:48:37;18.20;97.30
48998;DHT22;34807;51.456;7.244;2023-07-28T01:51:03;18.20;97.10
48998;DHT22;34807;51.456;7.244;2023-07-28T01:53:28;18.20;97.20
48998;DHT22;34807;51.456;7.244;2023-07-28T01:55:53;18.20;97.20
48998;DHT22;34807;51.456;7.244;2023-07-28T01:58:19;18.20;97.30
48998;DHT22;34807;51.456;7.244;2023-07-28T02:00:44;18.20;97.20
48998;DHT22;34807;51.456;7.244;2023-07-28T02:03:11;18.20;97.10
48998;DHT22;34807;51.456;7.244;2023-07-28T02:05:37;18.20;97.00
48998;DHT22;34807;51.456;7.244;2023-07-28T02:08:02;18.20;97.10
48998;DHT22;34807;51.456;7.244;2023-07-28T02:10:28;18.20;97.10
48998;DHT22;34807;51.456;7.244;2023-07-28T02:12:54;18.20;97.20
48998;DHT22;34807;51.456;7.244;2023-07-28T02:15:19;18.20;97.00
48998;DHT22;34807;51.456;7.244;2023-07-28T02:17:44;18.20;97.10
48998;DHT22;34807;51.456;7.244;2023-07-28T02:20:10;18.20;97.10
48998;DHT22;34807;51.456;7.244;2023-07-28T02:22:44;18.20;97.20
48998;DHT22;34807;51.456;7.244;2023-07-28T02:25:10;18.20;97.00
48998;DHT22;34807;51.456;7.244;2023-07-28T02:27:36;18.20;97.20
48998;DHT22;34807;51.456;7.244;2023-07-28T02:30:02;18.20;97.10
48998;DHT22;34807;51.456;7.244;2023-07-28T02:32:27;18.20;97.20
48998;DHT22;34807;51.456;7.244;2023-07-28T02:34:54;18.20;97.10
48998;DHT22;34807;51.456;7.244;2023-07-28T02:37:20;18.20;97.10
48998;DHT22;34807;51.456;7.244;2023-07-28T02:39:46;18.20;97.40
48998;DHT22;34807;51.456;7.244;2023-07-28T02:42:12;18.20;97.20
48998;DHT22;34807;51.456;7.244;2023-07-28T02:44:38;18.20;97.10
48998;DHT22;34807;51.456;7.244;2023-07-28T02:47:03;18.20;97.20
48998;DHT22;34807;51.456;7.244;2023-07-28T02:49:29;18.20;97.10
48998;DHT22;34807;51.456;7.244;2023-07-28T02:51:54;18.20;97.20
48998;DHT22;34807;51.456;7.244;2023-07-28T02:54:20;18.20;97.20
48998;DHT22;34807;51.456;7.244;2023-07-28T02:56:46;18.20;97.00
48998;DHT22;34807;51.456;7.244;2023-07-28T02:59:11;18.20;97.00
48998;DHT22;34807;51.456;7.244;2023-07-28T03:01:37;18.20;97.10
48998;DHT22;34807;51.456;7.244;2023-07-28T03:04:03;18.20;97.30
48998;DHT22;34807;51.456;7.244;2023-07-28T03:06:28;18.20;97.20
48998;DHT22;34807;51.456;7.244;2023-07-28T03:08:54;18.20;97.50
48998;DHT22;34807;51.456;7.244;2023-07-28T03:11:19;18.20;97.30
48998;DHT22;34807;51.456;7.244;2023-07-28T03:13:45;18.20;97.20
48998;DHT22;34807;51.456;7.244;2023-07-28T03:16:11;18.20;97.10
48998;DHT22;34807;51.456;7.244;2023-07-28T03:18:36;18.10;97.30
48998;DHT22;34807;51.456;7.244;2023-07-28T03:21:02;18.10;97.30
48998;DHT22;34807;51.456;7.244;2023-07-28T03:23:27;18.10;97.10
48998;DHT22;34807;51.456;7.244;2023-07-28T03:25:53;18.20;97.00
48998;DHT22;34807;51.456;7.244;2023-07-28T03:28:18;18.20;97.20
48998;DHT22;34807;51.456;7.244;2023-07-28T03:30:44;18.20;97.10
48998;DHT22;34807;51.456;7.244;2023-07-28T03:33:09;18.10;97.10
48998;DHT22;34807;51.456;7.244;2023-07-28T03:35:35;18.20;97.10
48998;DHT22;34807;51.456;7.244;2023-07-28T03:38:00;18.10;97.20
48998;DHT22;34807;51.456;7.244;2023-07-28T03:40:26;18.20;97.10
48998;DHT22;34807;51.456;7.244;2023-07-28T03:42:52;18.10;97.00
48998;DHT22;34807;51.456;7.244;2023-07-28T03:45:17;18.10;96.90
48998;DHT22;34807;51.456;7.244;2023-07-28T03:47:43;18.10;97.00
48998;DHT22;34807;51.456;7.244;2023-07-28T03:50:09;18.20;97.10
48998;DHT22;34807;51.456;7.244;2023-07-28T03:52:34;18.10;97.00
48998;DHT22;34807;51.456;7.244;2023-07-28T03:55:00;18.10;96.90
48998;DHT22;34807;51.456;7.244;2023-07-28T03:57:25;18.10;96.90
48998;DHT22;34807;51.456;7.244;2023-07-28T03:59:51;18.10;97.40
48998;DHT22;34807;51.456;7.244;2023-07-28T04:02:16;18.10;97.30
48998;DHT22;34807;51.456;7.244;2023-07-28T04:04:42;18.20;97.20
48998;DHT22;34807;51.456;7.244;2023-07-28T04:07:07;18.20;97.30
48998;DHT22;34807;51.456;7.244;2023-07-28T04:09:33;18.10;97.30
48998;DHT22;34807;51.456;7.244;2023-07-28T04:11:58;18.20;97.20
48998;DHT22;34807;51.456;7.244;2023-07-28T04:14:23;18.20;97.10
48998;DHT22;34807;51.456;7.244;2023-07-28T04:16:49;18.20;97.10
48998;DHT22;34807;51.456;7.244;2023-07-28T04:19:15;18.10;97.00
48998;DHT22;34807;51.456;7.244;2023-07-28T04:21:40;18.10;97.00
48998;DHT22;34807;51.456;7.244;2023-07-28T04:24:06;18.10;97.00
48998;DHT22;34807;51.456;7.244;2023-07-28T04:26:32;18.20;97.20
48998;DHT22;34807;51.456;7.244;2023-07-28T04:28:58;18.20;97.00
48998;DHT22;34807;51.456;7.244;2023-07-28T04:31:23;18.20;97.10
48998;DHT22;34807;51.456;7.244;2023-07-28T04:33:49;18.20;97.00
48998;DHT22;34807;51.456;7.244;2023-07-28T04:36:14;18.20;97.10
48998;DHT22;34807;51.456;7.244;2023-07-28T04:38:40;18.20;97.30
48998;DHT22;34807;51.456;7.244;2023-07-28T04:41:05;18.20;97.10
48998;DHT22;34807;51.456;7.244;2023-07-28T04:43:31;18.20;97.20
48998;DHT22;34807;51.456;7.244;2023-07-28T04:45:56;18.20;97.20
48998;DHT22;34807;51.456;7.244;2023-07-28T04:48:22;18.20;97.10
48998;DHT22;34807;51.456;7.244;2023-07-28T04:50:48;18.20;97.30
48998;DHT22;34807;51.456;7.244;2023-07-28T04:53:14;18.20;97.70
48998;DHT22;34807;51.456;7.244;2023-07-28T04:55:39;18.20;97.50
48998;DHT22;34807;51.456;7.244;2023-07-28T04:58:05;18.20;97.40
48998;DHT22;34807;51.456;7.244;2023-07-28T05:00:30;18.20;97.10
48998;DHT22;34807;51.456;7.244;2023-07-28T05:02:56;18.20;97.20
48998;DHT22;34807;51.456;7.244;2023-07-28T05:05:21;18.30;97.00
48998;DHT22;34807;51.456;7.244;2023-07-28T05:07:47;18.30;97.10
48998;DHT22;34807;51.456;7.244;2023-07-28T05:10:12;18.20;97.10
48998;DHT22;34807;51.456;7.244;2023-07-28T05:12:38;18.30;97.10
48998;DHT22;34807;51.456;7.244;2023-07-28T05:15:04;18.30;97.10
48998;DHT22;34807;51.456;7.244;2023-07-28T05:17:30;18.30;97.10
48998;DHT22;34807;51.456;7.244;2023-07-28T05:19:55;18.30;97.10
48998;DHT22;34807;51.456;7.244;2023-07-28T05:22:21;18.30;97.10
48998;DHT22;34807;51.456;7.244;2023-07-28T05:24:46;18.30;97.00
48998;DHT22;34807;51.456;7.244;2023-07-28T05:27:12;18.30;97.10
48998;DHT22;34807;51.456;7.244;2023-07-28T05:29:38;18.30;96.90
48998;DHT22;34807;51.456;7.244;2023-07-28T05:32:03;18.30;96.90
48998;DHT22;34807;51.456;7.244;2023-07-28T05:34:29;18.30;97.10
48998;DHT22;34807;51.456;7.244;2023-07-28T05:36:55;18.40;97.10
48998;DHT22;34807;51.456;7.244;2023-07-28T05:39:20;18.40;97.10
48998;DHT22;34807;51.456;7.244;2023-07-28T05:41:46;18.40;97.00
48998;DHT22;34807;51.456;7.244;2023-07-28T05:44:11;18.40;96.90
48998;DHT22;34807;51.456;7.244;2023-07-28T05:46:37;18.40;96.90
48998;DHT22;34807;51.456;7.244;2023-07-28T05:49:02;18.50;97.20
48998;DHT22;34807;51.456;7.244;2023-07-28T05:51:28;18.50;96.90
48998;DHT22;34807;51.456;7.244;2023-07-28T05:53:54;18.50;96.80
48998;DHT22;34807;51.456;7.244;2023-07-28T05:56:19;18.50;97.10
48998;DHT22;34807;51.456;7.244;2023-07-28T05:58:45;18.50;97.10
48998;DHT22;34807;51.456;7.244;2023-07-28T06:01:11;18.50;97.20
48998;DHT22;34807;51.456;7.244;2023-07-28T06:03:37;18.50;97.20
48998;DHT22;34807;51.456;7.244;2023-07-28T06:06:02;18.60;97.20
48998;DHT22;34807;51.456;7.244;2023-07-28T06:08:28;18.50;97.10
48998;DHT22;34807;51.456;7.244;2023-07-28T06:10:53;18.50;97.10
48998;DHT22;34807;51.456;7.244;2023-07-28T06:13:19;18.60;97.20
48998;DHT22;34807;51.456;7.244;2023-07-28T06:15:44;18.60;97.00
48998;DHT22;34807;51.456;7.244;2023-07-28T06:18:10;18.60;97.20
48998;DHT22;34807;51.456;7.244;2023-07-28T06:20:35;18.60;97.10
48998;DHT22;34807;51.456;7.244;2023-07-28T06:23:01;18.60;97.10
48998;DHT22;34807;51.456;7.244;2023-07-28T06:25:26;18.60;97.20
48998;DHT22;34807;51.456;7.244;2023-07-28T06:27:52;18.60;97.10
48998;DHT22;34807;51.456;7.244;2023-07-28T06:30:18;18.60;97.10
48998;DHT22;34807;51.456;7.244;2023-07-28T06:32:43;18.60;97.30
48998;DHT22;34807;51.456;7.244;2023-07-28T06:35:09;18.60;97.40
48998;DHT22;34807;51.456;7.244;2023-07-28T06:37:37;18.60;97.40
48998;DHT22;34807;51.456;7.244;2023-07-28T06:40:06;18.60;97.30
48998;DHT22;34807;51.456;7.244;2023-07-28T06:42:33;18.60;97.50
48998;DHT22;34807;51.456;7.244;2023-07-28T06:44:59;18.60;97.40
48998;DHT22;34807;51.456;7.244;2023-07-28T06:47:25;18.60;97.10
48998;DHT22;34807;51.456;7.244;2023-07-28T06:49:50;18.70;97.10
48998;DHT22;34807;51.456;7.244;2023-07-28T06:52:16;18.70;97.10
48998;DHT22;34807;51.456;7.244;2023-07-28T06:54:41;18.70;97.00
48998;DHT22;34807;51.456;7.244;2023-07-28T06:57:07;18.70;96.80
48998;DHT22;34807;51.456;7.244;2023-07-28T06:59:32;18.70;97.00
48998;DHT22;34807;51.456;7.244;2023-07-28T07:01:58;18.80;97.00
48998;DHT22;34807;51.456;7.244;2023-07-28T07:04:23;18.80;97.20
48998;DHT22;34807;51.456;7.244;2023-07-28T07:06:49;18.80;97.10
48998;DHT22;34807;51.456;7.244;2023-07-28T07:09:14;18.80;97.50
48998;DHT22;34807;51.456;7.244;2023-07-28T07:11:40;18.80;97.30
48998;DHT22;34807;51.456;7.244;2023-07-28T07:14:06;18.80;97.10
48998;DHT22;34807;51.456;7.244;2023-07-28T07:16:32;18.80;97.00
48998;DHT22;34807;51.456;7.244;2023-07-28T07:18:57;18.80;96.90
48998;DHT22;34807;51.456;7.244;2023-07-28T07:21:23;18.80;96.90
48998;DHT22;34807;51.456;7.244;2023-07-28T07:23:48;18.80;97.00
48998;DHT22;34807;51.456;7.244;2023-07-28T07:26:14;18.90;97.00
48998;DHT22;34807;51.456;7.244;2023-07-28T07:28:39;18.80;97.00
48998;DHT22;34807;51.456;7.244;2023-07-28T07:31:11;18.80;97.10
48998;DHT22;34807;51.456;7.244;2023-07-28T07:33:36;18.80;96.90
48998;DHT22;34807;51.456;7.244;2023-07-28T07:36:02;18.80;96.90
48998;DHT22;34807;51.456;7.244;2023-07-28T07:38:28;18.90;97.20
48998;DHT22;34807;51.456;7.244;2023-07-28T07:40:53;18.90;97.10
48998;DHT22;34807;51.456;7.244;2023-07-28T07:43:19;18.90;97.60
48998;DHT22;34807;51.456;7.244;2023-07-28T07:45:45;18.90;97.50
48998;DHT22;34807;51.456;7.244;2023-07-28T07:48:12;18.90;97.30
48998;DHT22;34807;51.456;7.244;2023-07-28T07:50:38;18.90;97.50
48998;DHT22;34807;51.456;7.244;2023-07-28T07:53:03;19.00;97.60
48998;DHT22;34807;51.456;7.244;2023-07-28T07:55:29;19.00;97.60
48998;DHT22;34807;51.456;7.244;2023-07-28T07:57:56;19.00;97.40
48998;DHT22;34807;51.456;7.244;2023-07-28T08:00:21;19.10;97.70
48998;DHT22;34807;51.456;7.244;2023-07-28T08:02:47;19.10;97.70
48998;DHT22;34807;51.456;7.244;2023-07-28T08:05:12;19.10;97.60
48998;DHT22;34807;51.456;7.244;2023-07-28T08:07:38;19.20;97.70
48998;DHT22;34807;51.456;7.244;2023-07-28T08:10:03;19.10;97.40
48998;DHT22;34807;51.456;7.244;2023-07-28T08:12:29;19.20;97.10
48998;DHT22;34807;51.456;7.244;2023-07-28T08:14:54;19.20;97.40
48998;DHT22;34807;51.456;7.244;2023-07-28T08:17:20;19.20;97.50
48998;DHT22;34807;51.456;7.244;2023-07-28T08:19:45;19.30;97.60
48998;DHT22;34807;51.456;7.244;2023-07-28T08:22:11;19.30;98.00
48998;DHT22;34807;51.456;7.244;2023-07-28T08:24:37;19.50;98.20
48998;DHT22;34807;51.456;7.244;2023-07-28T08:27:03;19.50;97.60
48998;DHT22;34807;51.456;7.244;2023-07-28T08:29:28;19.60;97.70
48998;DHT22;34807;51.456;7.244;2023-07-28T08:31:54;19.60;97.70
48998;DHT22;34807;51.456;7.244;2023-07-28T08:34:19;19.60;97.50
48998;DHT22;34807;51.456;7.244;2023-07-28T08:36:45;19.60;97.20
48998;DHT22;34807;51.456;7.244;2023-07-28T08:39:10;19.70;97.80
48998;DHT22;34807;51.456;7.244;2023-07-28T08:41:37;19.70;97.50
48998;DHT22;34807;51.456;7.244;2023-07-28T08:44:02;19.70;97.30
48998;DHT22;34807;51.456;7.244;2023-07-28T08:46:28;19.70;97.40
48998;DHT22;34807;51.456;7.244;2023-07-28T08:48:54;19.70;97.80
48998;DHT22;34807;51.456;7.244;2023-07-28T08:51:22;19.70;97.60
48998;DHT22;34807;51.456;7.244;2023-07-28T08:53:48;19.70;97.60
48998;DHT22;34807;51.456;7.244;2023-07-28T08:56:13;19.70;97.50
48998;DHT22;34807;51.456;7.244;2023-07-28T08:58:39;19.70;97.60
48998;DHT22;34807;51.456;7.244;2023-07-28T09:01:05;19.80;97.50
48998;DHT22;34807;51.456;7.244;2023-07-28T09:03:31;19.80;97.40
48998;DHT22;34807;51.456;7.244;2023-07-28T09:06:02;19.90;97.40
48998;DHT22;34807;51.456;7.244;2023-07-28T09:08:27;19.90;97.50
48998;DHT22;34807;51.456;7.244;2023-07-28T09:10:53;19.90;97.50
48998;DHT22;34807;51.456;7.244;2023-07-28T09:13:19;19.90;97.90
48998;DHT22;34807;51.456;7.244;2023-07-28T09:15:45;19.90;97.70
48998;DHT22;34807;51.456;7.244;2023-07-28T09:18:11;20.00;97.60
48998;DHT22;34807;51.456;7.244;2023-07-28T09:20:38;20.00;97.70
48998;DHT22;34807;51.456;7.244;2023-07-28T09:23:03;20.10;97.50
48998;DHT22;34807;51.456;7.244;2023-07-28T09:25:30;20.10;97.30
48998;DHT22;34807;51.456;7.244;2023-07-28T09:27:56;20.10;97.20
48998;DHT22;34807;51.456;7.244;2023-07-28T09:30:23;20.10;97.40
48998;DHT22;34807;51.456;7.244;2023-07-28T09:32:49;20.20;97.70
48998;DHT22;34807;51.456;7.244;2023-07-28T09:35:15;20.20;97.50
48998;DHT22;34807;51.456;7.244;2023-07-28T09:37:42;20.30;97.50
48998;DHT22;34807;51.456;7.244;2023-07-28T09:40:11;20.30;97.60
48998;DHT22;34807;51.456;7.244;2023-07-28T09:42:40;20.30;97.50
48998;DHT22;34807;51.456;7.244;2023-07-28T09:45:06;20.30;97.50
48998;DHT22;34807;51.456;7.244;2023-07-28T09:47:33;20.30;97.40
48998;DHT22;34807;51.456;7.244;2023-07-28T09:50:01;20.40;97.30
48998;DHT22;34807;51.456;7.244;2023-07-28T09:52:28;20.40;97.90
48998;DHT22;34807;51.456;7.244;2023-07-28T09:54:56;20.40;97.10
48998;DHT22;34807;51.456;7.244;2023-07-28T09:57:23;20.50;97.50
48998;DHT22;34807;51.456;7.244;2023-07-28T09:59:50;20.60;97.50
48998;DHT22;34807;51.456;7.244;2023-07-28T10:02:19;20.70;98.20
48998;DHT22;34807;51.456;7.244;2023-07-28T10:04:45;20.70;98.00
48998;DHT22;34807;51.456;7.244;2023-07-28T10:07:11;20.80;97.50
48998;DHT22;34807;51.456;7.244;2023-07-28T10:09:36;20.80;97.40
48998;DHT22;34807;51.456;7.244;2023-07-28T10:12:03;20.90;97.20
48998;DHT22;34807;51.456;7.244;2023-07-28T10:14:29;20.90;97.50
48998;DHT22;34807;51.456;7.244;2023-07-28T10:16:58;20.90;97.50
48998;DHT22;34807;51.456;7.244;2023-07-28T10:19:24;20.90;97.60
48998;DHT22;34807;51.456;7.244;2023-07-28T10:21:50;20.90;97.00
48998;DHT22;34807;51.456;7.244;2023-07-28T10:24:43;21.00;98.00
48998;DHT22;34807;51.456;7.244;2023-07-28T10:27:09;21.00;97.20
48998;DHT22;34807;51.456;7.244;2023-07-28T10:29:36;21.10;96.90
48998;DHT22;34807;51.456;7.244;2023-07-28T10:32:02;21.20;97.40
48998;DHT22;34807;51.456;7.244;2023-07-28T10:34:28;21.20;97.00
48998;DHT22;34807;51.456;7.244;2023-07-28T10:37:00;21.20;97.10
48998;DHT22;34807;51.456;7.244;2023-07-28T10:39:25;21.20;97.10
48998;DHT22;34807;51.456;7.244;2023-07-28T10:44:29;21.30;96.80
48998;DHT22;34807;51.456;7.244;2023-07-28T10:46:54;21.30;97.50
48998;DHT22;34807;51.456;7.244;2023-07-28T10:49:20;21.40;97.50
48998;DHT22;34807;51.456;7.244;2023-07-28T10:51:46;21.50;97.70
48998;DHT22;34807;51.456;7.244;2023-07-28T10:54:11;21.50;96.70
48998;DHT22;34807;51.456;7.244;2023-07-28T10:56:41;21.60;96.90
48998;DHT22;34807;51.456;7.244;2023-07-28T10:59:06;21.60;96.90
48998;DHT22;34807;51.456;7.244;2023-07-28T11:01:35;21.70;96.90
48998;DHT22;34807;51.456;7.244;2023-07-28T11:04:09;21.70;96.70
48998;DHT22;34807;51.456;7.244;2023-07-28T11:06:35;21.70;96.60
48998;DHT22;34807;51.456;7.244;2023-07-28T11:09:00;21.80;96.90
48998;DHT22;34807;51.456;7.244;2023-07-28T11:11:26;21.90;96.80
48998;DHT22;34807;51.456;7.244;2023-07-28T11:13:52;21.90;96.30
48998;DHT22;34807;51.456;7.244;2023-07-28T11:16:18;21.90;96.20
48998;DHT22;34807;51.456;7.244;2023-07-28T11:18:44;21.90;96.90
48998;DHT22;34807;51.456;7.244;2023-07-28T11:21:10;22.00;96.40
48998;DHT22;34807;51.456;7.244;2023-07-28T11:23:35;22.10;96.30
48998;DHT22;34807;51.456;7.244;2023-07-28T11:26:01;22.20;96.20
48998;DHT22;34807;51.456;7.244;2023-07-28T11:28:26;22.30;95.40
48998;DHT22;34807;51.456;7.244;2023-07-28T11:30:53;22.40;95.40
48998;DHT22;34807;51.456;7.244;2023-07-28T11:33:18;22.50;95.50
48998;DHT22;34807;51.456;7.244;2023-07-28T11:35:44;22.50;95.80
48998;DHT22;34807;51.456;7.244;2023-07-28T11:38:10;22.50;95.60
48998;DHT22;34807;51.456;7.244;2023-07-28T11:40:36;22.60;95.20
48998;DHT22;34807;51.456;7.244;2023-07-28T11:43:02;22.70;95.40
48998;DHT22;34807;51.456;7.244;2023-07-28T11:45:28;22.70;95.40
48998;DHT22;34807;51.456;7.244;2023-07-28T11:47:58;22.70;95.30
48998;DHT22;34807;51.456;7.244;2023-07-28T11:50:27;22.70;95.40
48998;DHT22;34807;51.456;7.244;2023-07-28T11:52:54;22.70;95.20
48998;DHT22;34807;51.456;7.244;2023-07-28T11:55:20;22.60;95.10
48998;DHT22;34807;51.456;7.244;2023-07-28T11:57:46;22.70;94.90
48998;DHT22;34807;51.456;7.244;2023-07-28T12:00:12;22.80;95.00
48998;DHT22;34807;51.456;7.244;2023-07-28T12:02:42;22.80;95.00
48998;DHT22;34807;51.456;7.244;2023-07-28T12:05:16;22.80;94.90
48998;DHT22;34807;51.456;7.244;2023-07-28T12:07:47;22.90;95.00
48998;DHT22;34807;51.456;7.244;2023-07-28T12:10:12;22.90;94.80
48998;DHT22;34807;51.456;7.244;2023-07-28T12:12:39;22.90;94.80
48998;DHT22;34807;51.456;7.244;2023-07-28T12:15:27;22.80;94.80
48998;DHT22;34807;51.456;7.244;2023-07-28T12:20:27;22.70;94.90
48998;DHT22;34807;51.456;7.244;2023-07-28T12:22:57;22.70;95.20
48998;DHT22;34807;51.456;7.244;2023-07-28T12:25:23;22.70;95.30
48998;DHT22;34807;51.456;7.244;2023-07-28T12:27:48;22.70;95.40
48998;DHT22;34807;51.456;7.244;2023-07-28T12:30:14;22.60;95.30
48998;DHT22;34807;51.456;7.244;2023-07-28T12:32:39;22.60;95.30
48998;DHT22;34807;51.456;7.244;2023-07-28T12:35:05;22.70;95.20
48998;DHT22;34807;51.456;7.244;2023-07-28T12:37:31;22.80;95.00
48998;DHT22;34807;51.456;7.244;2023-07-28T12:39:56;22.80;95.00
48998;DHT22;34807;51.456;7.244;2023-07-28T12:42:22;22.90;94.90
48998;DHT22;34807;51.456;7.244;2023-07-28T12:44:47;22.90;94.90
48998;DHT22;34807;51.456;7.244;2023-07-28T12:47:13;23.00;94.70
48998;DHT22;34807;51.456;7.244;2023-07-28T12:49:38;23.10;94.60
48998;DHT22;34807;51.456;7.244;2023-07-28T12:52:04;23.20;94.70
48998;DHT22;34807;51.456;7.244;2023-07-28T12:54:32;23.30;94.60
48998;DHT22;34807;51.456;7.244;2023-07-28T12:56:57;23.40;94.40
48998;DHT22;34807;51.456;7.244;2023-07-28T12:59:23;23.40;94.60
48998;DHT22;34807;51.456;7.244;2023-07-28T13:01:48;23.40;94.50
48998;DHT22;34807;51.456;7.244;2023-07-28T13:04:14;23.40;94.80
48998;DHT22;34807;51.456;7.244;2023-07-28T13:06:39;23.50;94.50
48998;DHT22;34807;51.456;7.244;2023-07-28T13:09:06;23.60;94.50
48998;DHT22;34807;51.456;7.244;2023-07-28T13:11:33;23.60;94.40
48998;DHT22;34807;51.456;7.244;2023-07-28T13:13:58;23.60;94.20
48998;DHT22;34807;51.456;7.244;2023-07-28T13:16:24;23.70;94.40
48998;DHT22;34807;51.456;7.244;2023-07-28T13:18:49;23.70;94.10
48998;DHT22;34807;51.456;7.244;2023-07-28T13:21:15;23.80;94.10
48998;DHT22;34807;51.456;7.244;2023-07-28T13:23:40;23.90;93.70
48998;DHT22;34807;51.456;7.244;2023-07-28T13:26:06;23.90;93.60
48998;DHT22;34807;51.456;7.244;2023-07-28T13:28:35;24.00;93.70
48998;DHT22;34807;51.456;7.244;2023-07-28T13:31:01;24.00;93.60
48998;DHT22;34807;51.456;7.244;2023-07-28T13:33:26;24.10;93.50
48998;DHT22;34807;51.456;7.244;2023-07-28T13:35:54;24.10;93.60
48998;DHT22;34807;51.456;7.244;2023-07-28T13:38:19;24.10;93.70
48998;DHT22;34807;51.456;7.244;2023-07-28T13:40:45;24.20;93.60
48998;DHT22;34807;51.456;7.244;2023-07-28T13:43:10;24.30;93.30
48998;DHT22;34807;51.456;7.244;2023-07-28T13:45:36;24.40;92.90
48998;DHT22;34807;51.456;7.244;2023-07-28T13:48:02;24.50;93.20
48998;DHT22;34807;51.456;7.244;2023-07-28T13:50:27;24.50;93.00
48998;DHT22;34807;51.456;7.244;2023-07-28T13:52:53;24.60;93.00
48998;DHT22;34807;51.456;7.244;2023-07-28T13:55:18;24.70;92.90
48998;DHT22;34807;51.456;7.244;2023-07-28T13:57:44;24.70;92.80
48998;DHT22;34807;51.456;7.244;2023-07-28T14:00:09;24.80;92.60
48998;DHT22;34807;51.456;7.244;2023-07-28T14:02:36;24.80;92.90
48998;DHT22;34807;51.456;7.244;2023-07-28T14:05:01;24.80;93.00
48998;DHT22;34807;51.456;7.244;2023-07-28T14:07:27;24.90;92.90
48998;DHT22;34807;51.456;7.244;2023-07-28T14:09:53;25.00;92.70
48998;DHT22;34807;51.456;7.244;2023-07-28T14:12:18;25.00;92.80
48998;DHT22;34807;51.456;7.244;2023-07-28T14:14:43;25.10;92.50
48998;DHT22;34807;51.456;7.244;2023-07-28T14:17:09;25.10;92.90
48998;DHT22;34807;51.456;7.244;2023-07-28T14:19:37;25.00;92.80
48998;DHT22;34807;51.456;7.244;2023-07-28T14:22:03;25.10;92.70
48998;DHT22;34807;51.456;7.244;2023-07-28T14:24:28;25.10;92.80
48998;DHT22;34807;51.456;7.244;2023-07-28T14:26:54;25.00;92.80
48998;DHT22;34807;51.456;7.244;2023-07-28T14:29:19;25.00;92.80
48998;DHT22;34807;51.456;7.244;2023-07-28T14:31:45;24.90;92.90
48998;DHT22;34807;51.456;7.244;2023-07-28T14:34:10;24.90;93.00
48998;DHT22;34807;51.456;7.244;2023-07-28T14:36:36;24.80;93.20
48998;DHT22;34807;51.456;7.244;2023-07-28T14:39:02;24.70;93.20
48998;DHT22;34807;51.456;7.244;2023-07-28T14:41:27;24.70;93.30
48998;DHT22;34807;51.456;7.244;2023-07-28T14:43:53;24.60;93.40
48998;DHT22;34807;51.456;7.244;2023-07-28T14:46:18;24.50;93.60
48998;DHT22;34807;51.456;7.244;2023-07-28T14:48:47;24.50;93.80
48998;DHT22;34807;51.456;7.244;2023-07-28T14:51:13;24.40;93.90
48998;DHT22;34807;51.456;7.244;2023-07-28T14:53:38;24.30;94.10
48998;DHT22;34807;51.456;7.244;2023-07-28T14:56:05;24.30;94.20
48998;DHT22;34807;51.456;7.244;2023-07-28T14:58:31;24.20;94.10
48998;DHT22;34807;51.456;7.244;2023-07-28T15:00:56;24.30;93.70
48998;DHT22;34807;51.456;7.244;2023-07-28T15:03:22;24.50;93.60
48998;DHT22;34807;51.456;7.244;2023-07-28T15:05:48;24.50;93.40
48998;DHT22;34807;51.456;7.244;2023-07-28T15:08:14;24.50;93.40
48998;DHT22;34807;51.456;7.244;2023-07-28T15:10:40;24.50;93.30
48998;DHT22;34807;51.456;7.244;2023-07-28T15:13:05;24.50;93.30
48998;DHT22;34807;51.456;7.244;2023-07-28T15:15:31;24.50;93.30
48998;DHT22;34807;51.456;7.244;2023-07-28T15:17:56;24.50;93.30
48998;DHT22;34807;51.456;7.244;2023-07-28T15:20:22;24.40;93.30
48998;DHT22;34807;51.456;7.244;2023-07-28T15:22:48;24.40;93.40
48998;DHT22;34807;51.456;7.244;2023-07-28T15:25:13;24.40;93.20
48998;DHT22;34807;51.456;7.244;2023-07-28T15:27:42;24.40;93.30
48998;DHT22;34807;51.456;7.244;2023-07-28T15:30:08;24.40;93.20
48998;DHT22;34807;51.456;7.244;2023-07-28T15:32:34;24.40;93.20
48998;DHT22;34807;51.456;7.244;2023-07-28T15:35:00;24.50;93.20